Time;durP1;ratioP1;P1;durP2;ratioP2;P2;SDS_P1;SDS_P2;PMS_P1;PMS_P2;Temp;Humidity;BMP_temperature;BMP_pressure;BME280_temperature;BME280_humidity;BME280_pressure;Samples;Min_cycle;Max_cycle;Signal;HPM_P1;HPM_P2
2022/11/08 00:02:39;;;;;;;25.08;17.27;;;;;;;9.98;100.00;100307.55;3014228;77;22037;-87
2022/11/08 00:15:23;;;;;;;13.75;11.63;;;;;;;9.90;100.00;100308.64;3043202;77;21019;-87
2022/11/08 00:19:24;;;;;;;18.40;14.07;;;;;;;9.90;100.00;100311.30;2960261;77;20988;-87
2022/11/08 00:23:25;;;;;;;20.88;16.80;;;;;;;9.86;100.00;100311.55;2942825;79;21553;-87
2022/11/08 00:27:27;;;;;;;24.95;19.12;;;;;;;9.78;100.00;100311.28;2924034;79;21622;-87
2022/11/08 00:31:28;;;;;;;30.50;21.27;;;;;;;9.75;100.00;100310.70;2865374;79;21039;-87
2022/11/08 00:35:29;;;;;;;25.40;17.20;;;;;;;9.67;100.00;100311.30;2906068;80;21456;-87
2022/11/08 00:39:31;;;;;;;37.65;27.15;;;;;;;9.68;100.00;100310.33;2914801;79;20990;-87
2022/11/08 00:43:32;;;;;;;29.07;22.58;;;;;;;9.67;100.00;100313.95;2960155;77;21008;-87
2022/11/08 00:47:34;;;;;;;24.20;16.77;;;;;;;9.67;100.00;100302.83;2965494;76;21516;-87
2022/11/08 00:51:36;;;;;;;12.37;10.32;;;;;;;9.64;100.00;100320.34;2969955;77;21063;-87
2022/11/08 00:55:37;;;;;;;15.20;10.68;;;;;;;9.63;100.00;100306.70;2991209;75;21005;-87
2022/11/08 00:59:39;;;;;;;18.55;12.88;;;;;;;9.60;100.00;100318.03;2997639;77;20946;-87
2022/11/08 01:03:40;;;;;;;15.50;11.80;;;;;;;9.56;100.00;100309.47;3038459;77;20963;-87
2022/11/08 01:07:42;;;;;;;12.88;11.10;;;;;;;9.51;100.00;100306.30;3001720;77;21018;-87
2022/11/08 01:11:45;;;;;;;15.03;11.50;;;;;;;9.40;100.00;100310.65;2934147;77;21054;-87
2022/11/08 01:15:47;;;;;;;12.23;10.93;;;;;;;9.41;100.00;100309.69;2946217;78;20979;-87
2022/11/08 01:19:48;;;;;;;10.85;8.30;;;;;;;9.35;100.00;100306.19;2952439;77;20998;-87
2022/11/08 01:23:50;;;;;;;13.28;10.28;;;;;;;9.29;100.00;100302.18;3030830;76;20990;-87
2022/11/08 01:27:52;;;;;;;11.18;8.43;;;;;;;9.20;100.00;100294.08;3009894;77;20988;-86
2022/11/08 01:31:53;;;;;;;13.35;8.18;;;;;;;9.08;100.00;100291.87;3014286;77;20978;-87
2022/11/08 01:35:55;;;;;;;13.62;7.92;;;;;;;9.02;100.00;100287.00;2993429;77;20995;-87
2022/11/08 01:39:56;;;;;;;8.50;7.00;;;;;;;9.05;100.00;100286.30;3019267;76;20995;-87
2022/11/08 01:43:58;;;;;;;10.60;8.23;;;;;;;9.13;100.00;100288.37;2987264;77;21034;-87
2022/11/08 01:48:00;;;;;;;11.08;9.15;;;;;;;9.25;100.00;100289.25;3050531;76;21005;-87
2022/11/08 01:52:38;;;;;;;10.48;8.23;;;;;;;9.40;100.00;100292.53;2925999;78;21018;-87
2022/11/08 01:56:41;;;;;;;12.65;8.55;;;;;;;9.52;100.00;100288.08;2968241;77;21507;-87
2022/11/08 02:00:43;;;;;;;12.70;9.33;;;;;;;9.66;100.00;100281.72;3047303;76;20939;-87
2022/11/08 02:04:44;;;;;;;12.33;8.30;;;;;;;9.70;100.00;100279.18;3017687;76;21024;-87
2022/11/08 02:08:45;;;;;;;9.15;7.53;;;;;;;9.71;100.00;100272.90;2963801;76;21011;-87
2022/11/08 02:12:47;;;;;;;10.60;7.20;;;;;;;9.70;100.00;100272.04;3036435;77;20964;-86
2022/11/08 02:16:49;;;;;;;11.35;7.35;;;;;;;9.77;100.00;100279.05;3019170;77;20983;-86
2022/11/08 02:21:24;;;;;;;9.38;7.00;;;;;;;9.83;100.00;100282.57;3021476;76;21477;-86
2022/11/08 02:25:26;;;;;;;9.45;7.37;;;;;;;9.90;100.00;100275.43;2939232;79;21059;-87
2022/11/08 02:29:34;;;;;;;10.35;7.35;;;;;;;9.97;100.00;100276.16;2893681;80;20991;-87
2022/11/08 02:33:36;;;;;;;11.10;9.03;;;;;;;10.09;100.00;100271.67;2960943;78;21031;-87
2022/11/08 02:37:37;;;;;;;7.62;6.50;;;;;;;10.08;100.00;100272.64;2901820;79;21011;-87
2022/11/08 02:41:39;;;;;;;11.70;6.75;;;;;;;10.15;100.00;100277.81;2964382;78;20959;-86
2022/11/08 02:45:40;;;;;;;8.50;6.95;;;;;;;10.25;100.00;100274.42;2974493;77;21009;-86
2022/11/08 02:49:42;;;;;;;7.30;6.60;;;;;;;10.25;100.00;100265.13;2950581;77;20944;-86
2022/11/08 02:53:43;;;;;;;12.63;7.55;;;;;;;10.26;100.00;100270.80;2977516;77;21393;-86
2022/11/08 02:57:45;;;;;;;10.58;7.92;;;;;;;10.17;100.00;100264.41;2967563;77;20983;-86
2022/11/08 03:01:46;;;;;;;11.38;7.17;;;;;;;10.13;100.00;100260.31;2950307;77;21042;-87
2022/11/08 03:05:48;;;;;;;8.48;7.12;;;;;;;10.14;100.00;100260.17;2975632;77;21522;-87
2022/11/08 03:09:49;;;;;;;12.00;6.90;;;;;;;10.16;100.00;100258.73;2976979;77;21022;-87
2022/11/08 03:13:50;;;;;;;12.33;7.60;;;;;;;10.15;100.00;100260.53;2916070;80;20999;-87
2022/11/08 03:17:52;;;;;;;10.40;8.15;;;;;;;10.12;100.00;100259.92;2942182;78;21045;-87
2022/11/08 03:21:53;;;;;;;15.90;8.63;;;;;;;10.15;100.00;100264.52;2963483;78;20999;-87
2022/11/08 03:25:56;;;;;;;13.60;9.20;;;;;;;10.22;100.00;100263.55;2961127;78;20991;-87
2022/11/08 03:29:57;;;;;;;8.83;7.92;;;;;;;10.31;100.00;100267.74;2884884;79;20975;-87
2022/11/08 03:33:59;;;;;;;12.65;8.88;;;;;;;10.27;100.00;100268.50;2970788;77;21011;-87
2022/11/08 03:38:00;;;;;;;7.83;6.62;;;;;;;10.29;100.00;100266.05;3053613;76;20948;-87
2022/11/08 03:42:03;;;;;;;11.68;7.60;;;;;;;10.31;100.00;100264.61;3023121;76;20995;-87
2022/11/08 03:46:05;;;;;;;12.90;8.20;;;;;;;10.27;100.00;100265.84;2988529;77;21509;-86
2022/11/08 03:50:07;;;;;;;12.28;8.75;;;;;;;10.20;100.00;100265.48;3000899;76;21019;-87
2022/11/08 03:54:09;;;;;;;10.68;9.35;;;;;;;10.14;100.00;100268.15;2978260;77;20991;-86
2022/11/08 03:58:11;;;;;;;11.33;7.83;;;;;;;10.13;100.00;100268.29;2982364;77;21003;-87
2022/11/08 04:02:13;;;;;;;10.90;8.40;;;;;;;10.10;100.00;100268.51;2906131;77;21116;-87
2022/11/08 04:06:14;;;;;;;9.60;7.55;;;;;;;10.06;100.00;100267.08;3011090;77;21120;-87
2022/11/08 04:10:16;;;;;;;10.58;8.13;;;;;;;10.03;100.00;100273.50;2995422;76;21086;-87
2022/11/08 04:22:57;;;;;;;11.35;8.00;;;;;;;9.99;100.00;100276.02;2920677;78;21009;-87
2022/11/08 04:26:58;;;;;;;10.90;8.30;;;;;;;9.99;100.00;100277.34;2895982;78;21545;-87
2022/11/08 04:31:06;;;;;;;11.12;7.80;;;;;;;9.99;100.00;100264.05;2955984;78;20984;-87
2022/11/08 04:35:07;;;;;;;11.57;8.73;;;;;;;9.96;100.00;100265.63;2963379;77;21031;-87
2022/11/08 04:39:09;;;;;;;14.10;8.68;;;;;;;9.92;100.00;100264.20;2980639;78;20981;-87
2022/11/08 04:43:11;;;;;;;11.28;8.35;;;;;;;9.90;100.00;100264.80;3033695;76;20976;-87
2022/11/08 04:47:12;;;;;;;10.25;8.28;;;;;;;9.85;100.00;100267.34;2959447;77;20970;-87
2022/11/08 04:51:19;;;;;;;11.12;9.45;;;;;;;9.89;100.00;100263.95;3044739;76;20958;-87
2022/11/08 04:55:22;;;;;;;12.35;8.88;;;;;;;9.91;100.00;100264.66;2994283;77;21031;-87
2022/11/08 04:59:23;;;;;;;11.18;8.43;;;;;;;9.92;100.00;100266.35;2947847;78;21656;-86
2022/11/08 05:03:25;;;;;;;15.75;9.45;;;;;;;9.94;100.00;100268.44;3011394;76;21046;-87
2022/11/08 05:07:28;;;;;;;16.20;11.00;;;;;;;9.96;100.00;100257.66;2990522;76;21105;-87
2022/11/08 05:11:30;;;;;;;32.28;20.08;;;;;;;9.91;100.00;100262.50;2994662;77;21024;-88
2022/11/08 05:15:34;;;;;;;20.55;14.80;;;;;;;9.83;100.00;100263.97;3006255;75;21022;-87
2022/11/08 05:23:58;;;;;;;10.15;9.08;;;;;;;9.71;100.00;100259.62;2983301;78;21110;-87
2022/11/08 05:28:00;;;;;;;11.85;8.90;;;;;;;9.52;100.00;100253.09;2922250;79;20976;-86
2022/11/08 05:32:02;;;;;;;10.60;9.30;;;;;;;9.41;100.00;100254.40;2901404;79;21542;-86
2022/11/08 05:36:09;;;;;;;12.50;8.00;;;;;;;9.35;100.00;100260.19;2923196;79;21611;-86
2022/11/08 05:40:11;;;;;;;13.30;10.28;;;;;;;9.37;100.00;100253.81;2929385;78;21010;-87
2022/11/08 05:44:12;;;;;;;11.33;10.08;;;;;;;9.41;100.00;100262.36;2901027;79;21520;-86
2022/11/08 05:48:14;;;;;;;11.88;8.48;;;;;;;9.39;100.00;100261.17;3009474;76;20967;-86
2022/11/08 05:52:15;;;;;;;16.65;9.85;;;;;;;9.38;100.00;100262.60;3025355;77;20951;-87
2022/11/08 05:56:17;;;;;;;12.58;9.33;;;;;;;9.21;100.00;100270.05;3038822;76;20988;-87
2022/11/08 06:00:19;;;;;;;10.48;8.08;;;;;;;9.06;100.00;100279.20;3039284;76;21031;-87
2022/11/08 06:04:21;;;;;;;10.53;8.33;;;;;;;8.99;100.00;100280.14;3018976;76;20976;-87
2022/11/08 06:08:22;;;;;;;15.53;8.65;;;;;;;8.94;100.00;100285.79;3035052;76;21507;-87
2022/11/08 06:12:23;;;;;;;8.23;6.72;;;;;;;8.95;100.00;100286.16;3009912;77;21019;-87
2022/11/08 06:16:25;;;;;;;10.93;9.23;;;;;;;9.03;100.00;100286.91;3024828;76;21007;-87
2022/11/08 06:20:26;;;;;;;10.53;9.25;;;;;;;9.20;100.00;100297.55;2978528;77;21397;-87
2022/11/08 06:24:28;;;;;;;16.07;10.13;;;;;;;9.35;100.00;100296.89;3011246;77;20987;-87
2022/11/08 06:28:30;;;;;;;12.78;9.63;;;;;;;9.51;100.00;100299.67;2995657;76;21533;-87
2022/11/08 06:32:31;;;;;;;16.65;9.10;;;;;;;9.77;100.00;100300.30;2945333;77;20980;-87
2022/11/08 06:36:32;;;;;;;12.45;9.48;;;;;;;10.03;100.00;100295.23;2993684;76;21483;-87
2022/11/08 06:40:35;;;;;;;10.93;9.08;;;;;;;10.28;100.00;100300.77;2968522;78;21561;-87
2022/11/08 06:44:37;;;;;;;11.75;7.45;;;;;;;10.49;100.00;100296.03;2982059;76;21074;-87
2022/11/08 06:48:38;;;;;;;8.55;7.15;;;;;;;10.68;100.00;100292.70;3033193;77;21526;-87
2022/11/08 06:52:39;;;;;;;9.70;8.18;;;;;;;10.77;100.00;100288.43;2983355;77;21056;-87
2022/11/08 06:56:47;;;;;;;9.55;8.55;;;;;;;10.80;100.00;100286.84;2968044;77;20999;-87
2022/11/08 07:00:48;;;;;;;13.65;9.23;;;;;;;10.85;100.00;100291.31;2872185;78;21064;-87
2022/11/08 07:04:50;;;;;;;12.00;7.90;;;;;;;10.92;100.00;100284.50;2875666;79;21651;-87
2022/11/08 07:08:51;;;;;;;13.80;8.15;;;;;;;10.98;100.00;100289.30;2874524;80;21033;-87
2022/11/08 07:13:11;;;;;;;11.65;10.50;;;;;;;11.08;100.00;100288.55;2853196;80;21019;-87
2022/11/08 07:17:14;;;;;;;13.90;9.93;;;;;;;11.20;100.00;100288.85;2863991;80;21573;-87
2022/11/08 07:21:15;;;;;;;11.73;7.85;;;;;;;11.39;100.00;100292.11;2865741;80;21072;-87
2022/11/08 07:25:17;;;;;;;11.03;7.83;;;;;;;11.69;100.00;100296.27;2882854;80;21956;-87
2022/11/08 07:29:18;;;;;;;8.75;7.17;;;;;;;11.86;100.00;100290.31;2872851;80;21023;-87
2022/11/08 07:33:19;;;;;;;8.58;7.55;;;;;;;12.00;100.00;100292.27;2810813;80;21087;-87
2022/11/08 07:37:20;;;;;;;12.60;8.83;;;;;;;12.21;100.00;100290.05;2846246;80;21046;-87
2022/11/08 07:41:22;;;;;;;11.35;8.45;;;;;;;12.43;100.00;100285.80;2875320;78;21054;-87
2022/11/08 07:45:24;;;;;;;8.40;6.62;;;;;;;12.62;99.31;100284.14;2861104;80;21022;-87
2022/11/08 07:49:25;;;;;;;13.95;7.30;;;;;;;12.78;98.98;100285.42;2884142;80;21030;-87
2022/11/08 07:53:27;;;;;;;9.70;6.45;;;;;;;13.04;99.82;100295.52;2833023;81;21048;-87
2022/11/08 07:57:28;;;;;;;10.72;8.88;;;;;;;13.26;98.19;100295.69;2783083;82;21083;-87
2022/11/08 08:01:29;;;;;;;10.40;6.47;;;;;;;13.34;95.70;100298.50;2786566;83;21047;-87
2022/11/08 08:05:35;;;;;;;9.03;5.58;;;;;;;13.42;96.86;100299.95;2788415;83;21045;-87
2022/11/08 08:09:36;;;;;;;10.43;6.00;;;;;;;13.49;96.45;100300.25;2788092;83;21598;-87
2022/11/08 08:13:37;;;;;;;7.65;6.50;;;;;;;13.56;95.89;100292.50;2758571;83;21015;-87
2022/11/08 08:17:39;;;;;;;9.68;6.97;;;;;;;13.67;96.45;100302.17;2785204;83;21108;-87
2022/11/08 08:21:40;;;;;;;8.05;5.75;;;;;;;13.79;96.25;100298.34;2798144;82;21043;-87
2022/11/08 08:25:41;;;;;;;8.30;6.53;;;;;;;13.94;94.64;100301.84;2754288;83;21027;-87
2022/11/08 08:29:42;;;;;;;10.35;5.60;;;;;;;13.98;94.80;100289.89;2805393;82;21053;-87
2022/11/08 08:33:44;;;;;;;8.95;5.35;;;;;;;14.05;94.16;100288.78;2898810;79;21010;-87
2022/11/08 08:37:45;;;;;;;7.83;5.45;;;;;;;14.19;95.13;100284.28;2874847;80;20988;-87
2022/11/08 08:41:46;;;;;;;7.47;4.60;;;;;;;14.20;93.10;100289.14;2828525;82;20980;-87
2022/11/08 08:45:48;;;;;;;10.23;5.58;;;;;;;14.28;92.11;100291.90;2755685;84;21019;-87
2022/11/08 08:49:50;;;;;;;7.62;4.45;;;;;;;14.51;92.99;100288.31;2738366;83;21028;-87
2022/11/08 08:53:51;;;;;;;7.62;5.25;;;;;;;14.66;90.74;100291.30;2753427;83;21017;-88
2022/11/08 08:57:53;;;;;;;7.90;5.60;;;;;;;14.74;90.90;100290.56;2847273;81;21074;-88
2022/11/08 09:01:54;;;;;;;7.30;5.80;;;;;;;14.89;90.89;100288.70;2884641;80;21001;-88
2022/11/08 09:05:59;;;;;;;9.48;4.05;;;;;;;15.11;93.24;100292.71;2891952;79;20990;-88
2022/11/08 09:10:00;;;;;;;10.88;7.08;;;;;;;15.19;89.04;100292.79;2877105;80;20987;-88
2022/11/08 09:14:02;;;;;;;8.90;5.60;;;;;;;15.31;88.78;100288.50;2849322;80;21007;-88
2022/11/08 09:18:03;;;;;;;22.75;16.55;;;;;;;15.37;88.46;100291.40;2838344;80;21048;-88
2022/11/08 09:22:05;;;;;;;8.33;6.22;;;;;;;15.45;89.39;100286.59;2813610;81;21015;-87
2022/11/08 09:26:18;;;;;;;15.40;6.15;;;;;;;15.31;91.11;100289.84;2884397;79;21895;-87
2022/11/08 09:30:19;;;;;;;9.05;5.92;;;;;;;15.32;90.30;100287.02;2785781;83;21599;-88
2022/11/08 09:34:21;;;;;;;11.20;4.97;;;;;;;15.49;91.12;100285.79;2814907;80;20988;-88
2022/11/08 09:38:22;;;;;;;8.08;4.35;;;;;;;15.70;89.20;100282.70;2821933;83;21024;-88
2022/11/08 09:42:51;;;;;;;10.28;4.75;;;;;;;15.87;89.86;100275.61;2877629;80;21044;-88
2022/11/08 09:46:56;;;;;;;6.42;4.28;;;;;;;15.90;86.87;100282.50;2856330;81;21127;-88
2022/11/08 09:51:02;;;;;;;9.58;4.42;;;;;;;16.11;86.95;100267.34;2869040;81;21021;-88
2022/11/08 09:55:21;;;;;;;5.50;3.95;;;;;;;16.39;86.19;100263.04;2833158;81;21035;-88
2022/11/08 09:59:46;;;;;;;6.55;3.90;;;;;;;16.38;83.70;100263.55;2873726;81;21076;-88
2022/11/08 10:03:51;;;;;;;6.30;3.70;;;;;;;16.47;83.56;100260.39;2882684;80;21547;-88
2022/11/08 10:08:22;;;;;;;7.55;3.40;;;;;;;16.53;81.98;100261.58;2845832;81;21051;-88
2022/11/08 10:12:57;;;;;;;3.45;3.12;;;;;;;16.63;81.91;100251.50;2883485;80;21110;-88
2022/11/08 10:17:37;;;;;;;5.12;2.65;;;;;;;16.76;81.40;100246.15;2873402;80;21602;-88
2022/11/08 10:22:11;;;;;;;5.12;3.50;;;;;;;16.78;81.18;100242.27;2874890;80;21029;-88
2022/11/08 10:26:19;;;;;;;4.62;2.40;;;;;;;16.89;80.87;100244.30;2899481;79;21023;-88
2022/11/08 10:30:29;;;;;;;3.80;2.52;;;;;;;16.95;79.54;100239.09;2878297;80;21577;-88
2022/11/08 10:34:36;;;;;;;3.12;1.92;;;;;;;16.96;80.80;100227.34;2879490;79;21167;-88
2022/11/08 10:38:55;;;;;;;3.25;2.67;;;;;;;17.01;80.61;100228.70;2885949;79;21019;-88
2022/11/08 10:43:22;;;;;;;3.55;2.40;;;;;;;17.12;80.56;100227.02;2727910;83;21546;-88
2022/11/08 10:47:28;;;;;;;4.80;3.00;;;;;;;17.12;79.08;100222.47;2840100;80;21047;-88
2022/11/08 10:51:29;;;;;;;4.33;2.58;;;;;;;17.09;78.01;100211.22;2840157;81;21609;-88
2022/11/08 10:55:37;;;;;;;4.90;3.35;;;;;;;17.17;79.85;100207.19;2870811;80;21109;-88
2022/11/08 10:59:40;;;;;;;8.05;2.67;;;;;;;17.16;78.61;100199.28;2881198;80;21010;-88
2022/11/08 11:03:42;;;;;;;4.97;2.40;;;;;;;17.19;79.17;100195.75;2905936;80;21574;-88
2022/11/08 11:08:00;;;;;;;4.35;2.92;;;;;;;17.12;78.38;100196.12;2879473;80;21050;-88
2022/11/08 11:12:06;;;;;;;4.45;3.37;;;;;;;17.18;77.39;100186.51;2756838;83;21071;-88
2022/11/08 11:16:12;;;;;;;7.75;2.47;;;;;;;17.28;77.85;100189.33;2831050;81;21104;-88
2022/11/08 11:20:21;;;;;;;;;;;;;;;17.32;76.81;100180.95;2881763;80;21019;-88
2022/11/08 11:24:23;;;;;;;4.12;1.65;;;;;;;17.40;78.34;100190.32;2870102;80;20109;-88
2022/11/08 11:28:25;;;;;;;4.12;2.60;;;;;;;17.45;76.83;100183.09;2882542;81;21204;-88
2022/11/08 11:32:34;;;;;;;3.72;2.00;;;;;;;17.43;78.40;100177.88;2862029;80;21178;-88
2022/11/08 11:36:36;;;;;;;2.85;1.60;;;;;;;17.46;76.36;100169.45;2872535;80;21072;-88
2022/11/08 11:40:42;;;;;;;5.37;2.58;;;;;;;17.49;77.13;100170.48;2888645;80;21029;-88
2022/11/08 11:45:07;;;;;;;3.08;1.60;;;;;;;17.48;75.23;100162.57;2872835;80;21109;-88
2022/11/08 11:49:19;;;;;;;4.35;1.57;;;;;;;17.51;76.75;100153.66;2872805;80;21051;-88
2022/11/08 11:53:35;;;;;;;3.45;2.00;;;;;;;17.45;74.21;100150.30;2861995;79;21099;-88
2022/11/08 11:57:50;;;;;;;4.28;2.60;;;;;;;17.44;73.72;100149.15;2867989;78;21060;-88
2022/11/08 12:02:19;;;;;;;5.67;2.67;;;;;;;17.39;74.19;100148.32;2877342;80;21046;-88
2022/11/08 12:06:35;;;;;;;1.47;1.02;;;;;;;17.41;74.91;100146.30;2872278;80;21608;-88
2022/11/08 12:11:00;;;;;;;3.47;1.87;;;;;;;17.38;73.44;100139.92;2884813;80;21000;-88
2022/11/08 12:15:12;;;;;;;5.40;2.60;;;;;;;17.22;74.59;100117.46;2869007;80;21013;-88
2022/11/08 12:19:39;;;;;;;3.75;2.17;;;;;;;17.41;73.78;100130.16;2859582;80;21055;-88
2022/11/08 12:24:20;;;;;;;6.12;1.62;;;;;;;17.46;74.58;100126.44;2865073;81;21045;-88
2022/11/08 12:28:59;;;;;;;3.40;1.92;;;;;;;17.45;73.58;100118.03;2856404;80;21016;-88
2022/11/08 12:33:18;;;;;;;8.05;3.25;;;;;;;17.40;72.12;100113.70;2866947;81;21007;-88
2022/11/08 12:37:59;;;;;;;3.12;1.15;;;;;;;17.44;72.31;100101.58;2870586;80;21484;-88
2022/11/08 12:42:37;;;;;;;4.42;2.00;;;;;;;17.49;72.89;100097.02;2896955;79;21007;-87
2022/11/08 12:47:06;;;;;;;2.17;0.85;;;;;;;17.45;74.61;100097.87;2892026;80;21070;-88
2022/11/08 12:51:41;;;;;;;3.40;1.85;;;;;;;17.44;74.67;100097.54;2867044;80;21045;-88
2022/11/08 12:55:47;;;;;;;1.80;1.60;;;;;;;17.45;75.15;100095.18;2870352;80;21644;-88
2022/11/08 13:00:05;;;;;;;7.87;1.92;;;;;;;17.43;75.28;100086.45;2873596;80;21047;-88
2022/11/08 13:04:33;;;;;;;2.50;1.77;;;;;;;17.36;73.88;100088.18;2870087;80;21020;-88
2022/11/08 13:08:51;;;;;;;6.25;2.42;;;;;;;17.35;73.40;100081.13;2892790;80;21038;-88
2022/11/08 13:13:29;;;;;;;3.22;2.27;;;;;;;17.34;75.13;100076.77;2904990;79;21146;-88
2022/11/08 13:17:30;;;;;;;35.60;29.57;;;;;;;17.21;75.48;100071.96;2870171;80;21006;-88
2022/11/08 13:21:37;;;;;;;5.70;2.92;;;;;;;17.13;75.17;100067.45;2885056;80;21012;-88
2022/11/08 13:25:40;;;;;;;4.70;2.33;;;;;;;16.96;75.22;100059.42;2877870;79;20987;-88
2022/11/08 13:29:41;;;;;;;7.05;2.87;;;;;;;16.90;75.74;100065.98;2879564;79;21502;-88
2022/11/08 13:34:36;;;;;;;3.27;1.70;;;;;;;16.83;76.46;100061.80;2890591;80;21044;-87
2022/11/08 13:38:46;;;;;;;3.30;2.75;;;;;;;16.81;75.50;100063.34;2876297;80;21033;-88
2022/11/08 13:42:58;;;;;;;5.40;1.70;;;;;;;16.85;76.67;100070.03;2877675;80;20980;-88
2022/11/08 13:47:00;;;;;;;7.17;1.98;;;;;;;16.76;76.44;100069.70;2862862;80;21593;-88
2022/11/08 13:51:29;;;;;;;5.28;2.10;;;;;;;16.80;75.57;100067.52;2888702;79;21016;-88
2022/11/08 13:55:49;;;;;;;3.98;2.08;;;;;;;16.76;75.35;100055.45;2757358;83;21428;-88
2022/11/08 13:59:54;;;;;;;5.65;2.17;;;;;;;16.76;75.95;100041.50;2803851;82;21050;-88
2022/11/08 14:03:58;;;;;;;11.08;7.15;;;;;;;16.61;77.22;100042.73;2786598;83;20993;-87
2022/11/08 14:08:05;;;;;;;18.85;8.95;;;;;;;16.41;77.92;100051.16;2784298;84;21124;-88
2022/11/08 14:12:14;;;;;;;13.00;8.85;;;;;;;16.27;78.54;100051.83;2770986;83;21031;-88
2022/11/08 14:16:22;;;;;;;7.83;4.75;;;;;;;16.16;78.55;100052.19;2742800;84;21603;-88
2022/11/08 14:20:41;;;;;;;5.55;3.42;;;;;;;16.07;78.48;100054.86;2799752;83;21022;-88
2022/11/08 14:24:43;;;;;;;2.15;1.65;;;;;;;15.99;78.38;100058.89;2814984;81;21001;-88
2022/11/08 14:28:46;;;;;;;3.52;1.60;;;;;;;15.89;77.55;100056.86;2882106;78;21099;-89
2022/11/08 14:33:06;;;;;;;3.58;1.80;;;;;;;15.79;78.68;100051.13;2872265;81;20978;-89
2022/11/08 14:37:22;;;;;;;3.50;1.87;;;;;;;15.69;78.35;100049.09;2869147;80;21019;-88
2022/11/08 14:41:28;;;;;;;4.40;1.93;;;;;;;15.64;78.57;100054.97;2876261;80;21025;-88
2022/11/08 14:45:30;;;;;;;3.25;2.12;;;;;;;15.41;77.98;100050.72;2845690;80;21077;-89
2022/11/08 14:49:35;;;;;;;4.42;2.77;;;;;;;15.35;78.37;100056.74;2870898;79;21550;-89
2022/11/08 14:53:50;;;;;;;8.50;4.73;;;;;;;15.21;78.43;100046.12;2879976;80;20979;-89
2022/11/08 14:57:52;;;;;;;5.22;2.98;;;;;;;15.21;78.43;100054.16;2844079;79;21055;-89
2022/11/08 15:01:54;;;;;;;5.95;3.87;;;;;;;15.11;78.66;100050.27;2854220;80;21129;-89
2022/11/08 15:06:00;;;;;;;7.80;4.25;;;;;;;14.96;79.20;100059.42;2911534;78;21113;-89
2022/11/08 15:10:09;;;;;;;4.60;2.85;;;;;;;14.79;80.00;100050.48;2902548;80;21010;-90
2022/11/08 15:14:17;;;;;;;5.20;3.60;;;;;;;14.65;81.27;100052.70;2862831;80;20971;-89
2022/11/08 15:18:30;;;;;;;6.05;3.65;;;;;;;14.48;82.16;100054.45;2873380;79;21059;-89
2022/11/08 15:22:35;;;;;;;9.40;5.22;;;;;;;14.20;84.18;100052.41;2878272;79;21027;-89
2022/11/08 15:26:37;;;;;;;10.35;9.13;;;;;;;13.98;84.65;100053.23;2891462;80;21007;-89
2022/11/08 15:30:42;;;;;;;11.50;8.93;;;;;;;13.73;85.73;100059.67;2860169;80;21043;-89
2022/11/08 15:34:44;;;;;;;20.08;10.93;;;;;;;13.63;85.74;100057.58;2880488;80;21478;-89
2022/11/08 15:38:49;;;;;;;14.10;8.35;;;;;;;13.41;87.35;100044.45;2862307;80;21008;-88
2022/11/08 15:42:52;;;;;;;21.20;15.08;;;;;;;13.20;90.64;100043.87;2831248;82;21011;-87
2022/11/08 15:46:54;;;;;;;134.00;84.28;;;;;;;12.97;92.15;100039.78;2867571;79;21597;-88
2022/11/08 15:50:56;;;;;;;268.40;148.78;;;;;;;12.83;92.17;100043.75;2879548;80;21507;-88
2022/11/08 15:54:58;;;;;;;189.72;97.15;;;;;;;12.68;93.51;100041.23;2879223;80;20967;-87
2022/11/08 15:59:00;;;;;;;103.78;52.85;;;;;;;12.65;93.91;100041.02;2882662;79;21004;-87
2022/11/08 16:03:01;;;;;;;57.55;35.13;;;;;;;12.56;94.55;100040.06;2850245;80;21003;-87
2022/11/08 16:07:03;;;;;;;42.03;24.67;;;;;;;12.50;94.72;100029.12;2841083;81;21472;-87
2022/11/08 16:11:04;;;;;;;22.07;11.88;;;;;;;12.59;93.35;100027.42;2867752;80;21046;-86
2022/11/08 16:15:16;;;;;;;10.40;7.80;;;;;;;12.56;93.00;100034.73;2786429;81;21046;-86
2022/11/08 16:19:22;;;;;;;12.15;7.60;;;;;;;12.48;92.97;100029.77;2768148;83;21397;-87
2022/11/08 16:23:23;;;;;;;15.45;8.35;;;;;;;12.36;92.55;100027.77;2772829;82;21571;-87
2022/11/08 16:27:24;;;;;;;12.88;9.65;;;;;;;12.27;92.93;100033.47;2796501;83;21019;-86
2022/11/08 16:31:27;;;;;;;18.57;10.95;;;;;;;12.20;93.20;100035.03;2780387;83;21686;-90
2022/11/08 16:35:28;;;;;;;19.98;14.05;;;;;;;12.07;94.02;100037.48;2787265;83;21037;-89
2022/11/08 16:39:30;;;;;;;20.90;12.88;;;;;;;12.03;94.29;100036.09;2740516;84;21037;-87
2022/11/08 16:43:31;;;;;;;28.30;12.43;;;;;;;11.98;94.54;100039.14;2805597;82;21076;-89
2022/11/08 16:47:33;;;;;;;23.87;13.48;;;;;;;11.96;94.03;100038.92;2774505;83;21599;-89
2022/11/08 16:51:35;;;;;;;28.87;19.87;;;;;;;11.84;94.92;100043.08;2756236;84;21045;-89
2022/11/08 16:55:36;;;;;;;21.50;13.03;;;;;;;11.83;95.17;100041.88;2734415;83;21056;-90
2022/11/08 16:59:37;;;;;;;18.02;12.98;;;;;;;11.84;95.74;100049.75;2861780;80;21516;-89
2022/11/08 17:03:39;;;;;;;38.50;26.55;;;;;;;11.82;97.27;100042.38;2851561;79;20978;-89
2022/11/08 17:07:41;;;;;;;54.77;38.55;;;;;;;11.81;97.93;100034.52;2883886;80;21056;-90
2022/11/08 17:11:44;;;;;;;42.43;29.07;;;;;;;11.80;98.74;100042.16;2872448;80;21004;-89
2022/11/08 17:15:47;;;;;;;29.50;21.37;;;;;;;11.76;100.00;100032.27;2861812;80;21486;-89
2022/11/08 17:19:49;;;;;;;26.30;22.17;;;;;;;11.78;100.00;100036.95;2810052;82;31731;-88
2022/11/08 17:23:50;;;;;;;28.07;20.48;;;;;;;11.75;99.68;100032.42;2850498;81;21009;-87
2022/11/08 17:27:52;;;;;;;92.12;63.48;;;;;;;11.71;98.88;100034.52;2871681;80;20974;-88
2022/11/08 17:31:53;;;;;;;40.73;27.35;;;;;;;11.67;100.00;100035.27;2867910;80;21076;-88
2022/11/08 17:35:55;;;;;;;27.10;17.15;;;;;;;11.66;100.00;100030.09;2860604;80;21008;-89
2022/11/08 17:39:56;;;;;;;20.05;15.75;;;;;;;11.72;100.00;100038.86;2888647;80;21490;-88
2022/11/08 17:43:57;;;;;;;31.17;20.82;;;;;;;11.81;100.00;100032.70;2874493;80;21007;-88
2022/11/08 17:47:59;;;;;;;37.13;26.62;;;;;;;11.89;100.00;100028.02;2810416;80;21014;-89
2022/11/08 17:52:00;;;;;;;38.38;28.65;;;;;;;11.98;100.00;100028.95;2845355;80;21526;-89
2022/11/08 17:56:06;;;;;;;43.38;31.52;;;;;;;12.03;100.00;100032.09;2807297;81;21022;-89
2022/11/08 18:00:08;;;;;;;27.32;21.77;;;;;;;12.05;100.00;100025.27;2762194;83;21599;-88
2022/11/08 18:04:10;;;;;;;24.77;17.90;;;;;;;12.12;100.00;100019.23;2860355;80;21348;-89
2022/11/08 18:08:11;;;;;;;18.70;14.80;;;;;;;12.11;100.00;100025.55;2870414;80;21470;-88
2022/11/08 18:12:13;;;;;;;22.02;14.50;;;;;;;12.14;100.00;100024.44;2864100;80;21451;-87
2022/11/08 18:16:17;;;;;;;24.32;17.35;;;;;;;12.18;100.00;100024.50;2868864;80;21058;-89
2022/11/08 18:20:19;;;;;;;21.48;13.38;;;;;;;12.20;100.00;100021.70;2856340;79;21075;-88
2022/11/08 18:24:20;;;;;;;18.30;14.38;;;;;;;12.27;100.00;100022.80;2877363;78;21846;-89
2022/11/08 18:28:24;;;;;;;20.85;14.73;;;;;;;12.27;100.00;100024.13;2842037;80;21069;-89
2022/11/08 18:32:27;;;;;;;22.00;16.10;;;;;;;12.28;100.00;100021.81;2878765;78;21033;-88
2022/11/08 18:36:30;;;;;;;19.27;15.23;;;;;;;12.32;99.83;100023.70;2856222;80;21090;-87
2022/11/08 18:40:33;;;;;;;22.20;16.30;;;;;;;12.26;99.61;100021.94;2882163;79;21059;-87
2022/11/08 18:44:35;;;;;;;23.27;16.48;;;;;;;12.14;100.00;100015.93;2907212;80;21165;-87
2022/11/08 18:48:37;;;;;;;32.28;21.27;;;;;;;12.26;99.15;100019.78;2890878;79;21752;-87
2022/11/08 18:52:44;;;;;;;36.10;18.80;;;;;;;12.20;99.10;100020.37;2851037;80;21053;-87
2022/11/08 18:56:43;;;;;;;20.92;16.10;;;;;;;12.15;99.37;100019.45;2827160;79;21077;-87
2022/11/08 19:00:45;;;;;;;23.45;17.12;;;;;;;12.09;99.71;100026.70;2863984;80;20996;-87
2022/11/08 19:04:47;;;;;;;26.62;18.42;;;;;;;12.13;99.20;100024.09;2876832;79;21680;-87
2022/11/08 19:08:48;;;;;;;24.02;18.67;;;;;;;12.11;98.89;100022.06;2850932;79;21023;-87
2022/11/08 19:12:50;;;;;;;27.42;20.43;;;;;;;12.03;98.98;100022.77;2846902;80;21032;-87